Cascade, MT

12:42 AM MST on February 28, 2015 (GMT -0700)
Trout Montana Fly Shop, Cascade, MT | Change Station
CLOSE
Current Station
Personal Weather Station
Location: Cascade, MT
Elevation: 3376 ft
Nearby Weather Stations

Elev 3376 ft 47.27 °N, 111.70 °W | Updated 2 minutes ago

Overcast
Overcast
18.1 °F
Feels Like 18 °F
N
1.0
Wind Variable Wind from NW
Gusts 4.0 mph

Today
High -- | Low -- °F
--% Chance of Precip.
Yesterday
High -- | Low -- °F
Precip. -- in
7:09 AM 6:10 PM
Waxing Gibbous, 75% visible
Pressure 30.31 in
Visibility 6.0 miles
Clouds Overcast 3100 ft
Windchill 18 °F
Dew Point 14 °F
Humidity 84%
Rainfall 0.00 in
Snow Depth Not available.
UV 0 out of 12
Pollen .40 out of 12
Air Quality Not available.
Flu Activity Not available.
METAR KGTF 280653Z 00000KT 6SM -SN BR OVC031 M09/M12 A3010 RMK AO2 SNB48 SLP264 P0000 T10941117 410671167

More Conditions Fewer Conditions

Pressure 30.31 in
Visibility 6.0 miles
Clouds Overcast 3100 ft
Windchill 18 °F
Dew Point 14 °F
Humidity 84%
Rainfall 0.00 in
Snow Depth Not available.
UV 0 out of 12
Pollen .40 out of 12
Air Quality Not available.
Flu Activity Not available.
METAR KGTF 280653Z 00000KT 6SM -SN BR OVC031 M09/M12 A3010 RMK AO2 SNB48 SLP264 P0000 T10941117 410671167

More Conditions Fewer Conditions

10-Day Weather Forecast

Almanac

Astronomy

Feb. 28, 2015 Rise Set
Actual Time
Civil Twilight
Nautical Twilight
Astronomical Twilight
Moon
Length of Visible Light
Length of Day
Tomorrow will be .
, % of the Moon is Illuminated

Today's Extremes

State Highs State Lows

Community

WunderPhotos

Upload Photos

1,800,984 photos uploaded!

WunderBlogs® & News

Nearby

Air Quality

  Air Quality AQ Index Pollutant
Not available.

Snow Depth

Station Depth Elevation

Earthquake Activity

City Distance Mag. Time & Date
Minimum magnitude displayed is 2.5.

Coastal Water Temperatures

Place Temperature

Nearby Weather Stations